sensor_id;sensor_type;location;lat;lon;timestamp;pressure;altitude;pressure_sealevel;temperature;humidity
53522;BME280;39398;48.382;9.802;2022-10-17T00:00:22;94449.69;;;16.88;64.24
53522;BME280;39398;48.382;9.802;2022-10-17T00:01:23;94448.88;;;16.87;64.20
53522;BME280;39398;48.382;9.802;2022-10-17T00:02:25;94444.34;;;16.88;64.22
53522;BME280;39398;48.382;9.802;2022-10-17T00:03:26;94449.13;;;16.86;64.06
53522;BME280;39398;48.382;9.802;2022-10-17T00:04:28;94447.69;;;16.83;64.35
53522;BME280;39398;48.382;9.802;2022-10-17T00:05:29;94449.16;;;16.79;63.99
53522;BME280;39398;48.382;9.802;2022-10-17T00:06:31;94443.16;;;16.84;63.80
53522;BME280;39398;48.382;9.802;2022-10-17T00:07:32;94444.22;;;16.83;64.25
53522;BME280;39398;48.382;9.802;2022-10-17T00:08:34;94447.69;;;16.83;64.10
53522;BME280;39398;48.382;9.802;2022-10-17T00:09:36;94445.84;;;16.84;64.43
53522;BME280;39398;48.382;9.802;2022-10-17T00:10:38;94453.03;;;16.83;64.50
53522;BME280;39398;48.382;9.802;2022-10-17T00:11:40;94448.56;;;16.77;64.88
53522;BME280;39398;48.382;9.802;2022-10-17T00:12:41;94452.53;;;16.61;65.46
53522;BME280;39398;48.382;9.802;2022-10-17T00:13:44;94453.72;;;16.40;66.91
53522;BME280;39398;48.382;9.802;2022-10-17T00:14:46;94450.81;;;16.42;67.52
53522;BME280;39398;48.382;9.802;2022-10-17T00:15:47;94452.91;;;16.33;67.92
53522;BME280;39398;48.382;9.802;2022-10-17T00:16:49;94455.38;;;16.35;68.06
53522;BME280;39398;48.382;9.802;2022-10-17T00:17:50;94458.00;;;16.41;67.22
53522;BME280;39398;48.382;9.802;2022-10-17T00:18:52;94456.09;;;16.48;67.17
53522;BME280;39398;48.382;9.802;2022-10-17T00:19:53;94460.72;;;16.35;67.67
53522;BME280;39398;48.382;9.802;2022-10-17T00:20:55;94457.47;;;16.26;67.93
53522;BME280;39398;48.382;9.802;2022-10-17T00:21:56;94458.31;;;16.20;69.40
53522;BME280;39398;48.382;9.802;2022-10-17T00:22:58;94458.31;;;16.20;69.09
53522;BME280;39398;48.382;9.802;2022-10-17T00:24:00;94459.56;;;16.17;69.15
53522;BME280;39398;48.382;9.802;2022-10-17T00:25:02;94462.06;;;16.12;69.14
53522;BME280;39398;48.382;9.802;2022-10-17T00:26:04;94461.78;;;16.20;69.13
53522;BME280;39398;48.382;9.802;2022-10-17T00:27:06;94467.56;;;16.11;69.30
53522;BME280;39398;48.382;9.802;2022-10-17T00:28:08;94465.56;;;16.06;70.56
53522;BME280;39398;48.382;9.802;2022-10-17T00:29:11;94459.22;;;16.00;70.58
53522;BME280;39398;48.382;9.802;2022-10-17T00:30:14;94466.22;;;15.95;71.15
53522;BME280;39398;48.382;9.802;2022-10-17T00:31:17;94470.13;;;15.92;71.52
53522;BME280;39398;48.382;9.802;2022-10-17T00:32:19;94470.72;;;15.94;71.14
53522;BME280;39398;48.382;9.802;2022-10-17T00:33:20;94471.41;;;15.83;71.55
53522;BME280;39398;48.382;9.802;2022-10-17T00:34:22;94466.06;;;15.83;71.59
53522;BME280;39398;48.382;9.802;2022-10-17T00:35:24;94467.31;;;15.80;71.75
53522;BME280;39398;48.382;9.802;2022-10-17T00:36:25;94466.50;;;15.80;71.57
53522;BME280;39398;48.382;9.802;2022-10-17T00:37:29;94468.31;;;15.86;72.20
53522;BME280;39398;48.382;9.802;2022-10-17T00:38:30;94468.72;;;15.83;71.89
53522;BME280;39398;48.382;9.802;2022-10-17T00:39:32;94464.03;;;15.78;72.34
53522;BME280;39398;48.382;9.802;2022-10-17T00:40:33;94473.25;;;15.76;72.62
53522;BME280;39398;48.382;9.802;2022-10-17T00:41:35;94472.00;;;15.78;72.68
53522;BME280;39398;48.382;9.802;2022-10-17T00:42:36;94471.00;;;15.79;72.69
53522;BME280;39398;48.382;9.802;2022-10-17T00:43:49;94473.25;;;15.76;72.74
53522;BME280;39398;48.382;9.802;2022-10-17T00:45:14;94468.16;;;15.68;73.25
53522;BME280;39398;48.382;9.802;2022-10-17T00:46:16;94465.09;;;15.71;73.05
53522;BME280;39398;48.382;9.802;2022-10-17T00:47:19;94466.50;;;15.73;72.93
53522;BME280;39398;48.382;9.802;2022-10-17T00:48:23;94461.75;;;15.82;72.62
53522;BME280;39398;48.382;9.802;2022-10-17T00:49:27;94461.97;;;15.80;73.03
53522;BME280;39398;48.382;9.802;2022-10-17T00:50:30;94460.34;;;15.73;72.94
53522;BME280;39398;48.382;9.802;2022-10-17T00:51:35;94460.97;;;15.75;73.08
53522;BME280;39398;48.382;9.802;2022-10-17T00:52:39;94461.97;;;15.80;72.52
53522;BME280;39398;48.382;9.802;2022-10-17T00:53:41;94466.03;;;15.90;72.38
53522;BME280;39398;48.382;9.802;2022-10-17T00:54:45;94464.97;;;15.97;71.20
53522;BME280;39398;48.382;9.802;2022-10-17T00:55:50;94457.88;;;15.78;70.88
53522;BME280;39398;48.382;9.802;2022-10-17T00:56:52;94461.34;;;15.85;70.73
53522;BME280;39398;48.382;9.802;2022-10-17T00:57:55;94459.97;;;15.56;71.73
53522;BME280;39398;48.382;9.802;2022-10-17T00:58:56;94455.31;;;15.31;73.00
53522;BME280;39398;48.382;9.802;2022-10-17T01:00:02;94457.00;;;15.13;73.57
53522;BME280;39398;48.382;9.802;2022-10-17T01:01:05;94457.41;;;15.09;74.13
53522;BME280;39398;48.382;9.802;2022-10-17T01:02:10;94459.81;;;15.24;73.08
53522;BME280;39398;48.382;9.802;2022-10-17T01:03:13;94461.84;;;15.42;72.39
53522;BME280;39398;48.382;9.802;2022-10-17T01:04:14;94463.03;;;15.53;71.73
53522;BME280;39398;48.382;9.802;2022-10-17T01:05:17;94462.84;;;15.54;71.49
53522;BME280;39398;48.382;9.802;2022-10-17T01:06:19;94457.13;;;15.51;71.48
53522;BME280;39398;48.382;9.802;2022-10-17T01:07:21;94467.34;;;15.61;70.79
53522;BME280;39398;48.382;9.802;2022-10-17T01:08:23;94463.44;;;15.56;70.49
53522;BME280;39398;48.382;9.802;2022-10-17T01:09:25;94457.94;;;15.51;70.64
53522;BME280;39398;48.382;9.802;2022-10-17T01:10:31;94465.31;;;15.43;71.04
53522;BME280;39398;48.382;9.802;2022-10-17T01:11:39;94462.03;;;15.41;71.51
53522;BME280;39398;48.382;9.802;2022-10-17T01:12:56;94460.38;;;15.53;71.20
53522;BME280;39398;48.382;9.802;2022-10-17T01:14:05;94457.34;;;15.36;71.83
53522;BME280;39398;48.382;9.802;2022-10-17T01:15:13;94459.59;;;15.46;71.73
53522;BME280;39398;48.382;9.802;2022-10-17T01:16:27;94460.22;;;15.34;71.78
53522;BME280;39398;48.382;9.802;2022-10-17T01:17:39;94452.44;;;15.40;72.08
53522;BME280;39398;48.382;9.802;2022-10-17T01:18:52;94455.31;;;15.25;73.05
53522;BME280;39398;48.382;9.802;2022-10-17T01:20:28;94458.63;;;15.14;73.92
53522;BME280;39398;48.382;9.802;2022-10-17T01:21:38;94452.25;;;15.15;73.57
53522;BME280;39398;48.382;9.802;2022-10-17T01:22:47;94453.72;;;15.04;74.23
53522;BME280;39398;48.382;9.802;2022-10-17T01:25:28;94457.81;;;15.13;75.28
53522;BME280;39398;48.382;9.802;2022-10-17T01:26:43;94452.50;;;15.13;75.23
53522;BME280;39398;48.382;9.802;2022-10-17T01:27:55;94447.34;;;15.11;75.23
53522;BME280;39398;48.382;9.802;2022-10-17T01:29:26;94456.13;;;15.19;75.65
53522;BME280;39398;48.382;9.802;2022-10-17T01:30:53;94450.81;;;15.19;75.15
53522;BME280;39398;48.382;9.802;2022-10-17T01:32:00;94453.91;;;15.22;74.80
53522;BME280;39398;48.382;9.802;2022-10-17T01:33:07;94455.53;;;15.23;74.77
53522;BME280;39398;48.382;9.802;2022-10-17T01:34:15;94450.22;;;15.30;75.16
53522;BME280;39398;48.382;9.802;2022-10-17T01:35:22;94447.53;;;15.30;75.21
53522;BME280;39398;48.382;9.802;2022-10-17T01:36:35;94447.34;;;15.25;75.60
53522;BME280;39398;48.382;9.802;2022-10-17T01:37:42;94447.56;;;15.17;75.79
53522;BME280;39398;48.382;9.802;2022-10-17T01:38:48;94453.69;;;15.17;76.02
53522;BME280;39398;48.382;9.802;2022-10-17T01:39:57;94448.38;;;15.17;76.22
53522;BME280;39398;48.382;9.802;2022-10-17T01:41:02;94449.00;;;15.19;76.40
53522;BME280;39398;48.382;9.802;2022-10-17T01:42:11;94450.84;;;15.12;76.47
53522;BME280;39398;48.382;9.802;2022-10-17T01:43:20;94452.88;;;15.17;76.49
53522;BME280;39398;48.382;9.802;2022-10-17T01:44:27;94445.50;;;15.12;76.58
53522;BME280;39398;48.382;9.802;2022-10-17T01:45:37;94440.84;;;15.01;77.11
53522;BME280;39398;48.382;9.802;2022-10-17T01:46:44;94443.91;;;15.04;76.91
53522;BME280;39398;48.382;9.802;2022-10-17T01:47:51;94446.56;;;15.04;77.02
53522;BME280;39398;48.382;9.802;2022-10-17T01:48:54;94442.69;;;15.00;77.11
53522;BME280;39398;48.382;9.802;2022-10-17T01:50:02;94435.53;;;15.01;77.17
53522;BME280;39398;48.382;9.802;2022-10-17T01:51:08;94440.03;;;15.00;77.14
53522;BME280;39398;48.382;9.802;2022-10-17T01:52:14;94439.00;;;15.01;77.23
53522;BME280;39398;48.382;9.802;2022-10-17T01:53:21;94439.63;;;14.97;77.48
53522;BME280;39398;48.382;9.802;2022-10-17T01:54:31;94436.53;;;14.93;77.60
53522;BME280;39398;48.382;9.802;2022-10-17T01:55:35;94435.53;;;14.94;77.63
53522;BME280;39398;48.382;9.802;2022-10-17T01:56:39;94436.53;;;14.80;78.02
53522;BME280;39398;48.382;9.802;2022-10-17T01:57:45;94444.09;;;14.83;78.14
53522;BME280;39398;48.382;9.802;2022-10-17T01:58:50;94440.00;;;14.80;78.14
53522;BME280;39398;48.382;9.802;2022-10-17T01:59:54;94438.78;;;14.83;77.95
53522;BME280;39398;48.382;9.802;2022-10-17T02:00:57;94442.06;;;14.85;78.37
53522;BME280;39398;48.382;9.802;2022-10-17T02:02:04;94443.28;;;14.82;78.41
53522;BME280;39398;48.382;9.802;2022-10-17T02:03:09;94440.00;;;14.80;78.43
53522;BME280;39398;48.382;9.802;2022-10-17T02:04:12;94440.84;;;14.81;78.47
53522;BME280;39398;48.382;9.802;2022-10-17T02:05:15;94442.47;;;14.82;78.34
53522;BME280;39398;48.382;9.802;2022-10-17T02:06:18;94434.91;;;14.85;78.26
53522;BME280;39398;48.382;9.802;2022-10-17T02:07:19;94436.53;;;14.80;78.30
53522;BME280;39398;48.382;9.802;2022-10-17T02:08:25;94439.81;;;14.82;78.44
53522;BME280;39398;48.382;9.802;2022-10-17T02:09:26;94432.88;;;14.87;78.18
53522;BME280;39398;48.382;9.802;2022-10-17T02:10:35;94432.88;;;14.94;78.56
53522;BME280;39398;48.382;9.802;2022-10-17T02:11:39;94435.13;;;14.97;78.27
53522;BME280;39398;48.382;9.802;2022-10-17T02:12:46;94432.63;;;15.02;79.01
53522;BME280;39398;48.382;9.802;2022-10-17T02:14:10;94430.22;;;14.94;79.79
53522;BME280;39398;48.382;9.802;2022-10-17T02:15:34;94429.19;;;14.88;80.89
53522;BME280;39398;48.382;9.802;2022-10-17T02:16:42;94418.56;;;14.82;81.95
53522;BME280;39398;48.382;9.802;2022-10-17T02:17:57;94428.78;;;14.78;82.61
53522;BME280;39398;48.382;9.802;2022-10-17T02:19:13;94426.94;;;14.72;82.61
53522;BME280;39398;48.382;9.802;2022-10-17T02:20:24;94420.00;;;14.84;81.77
53522;BME280;39398;48.382;9.802;2022-10-17T02:21:30;94423.25;;;14.86;82.30
53522;BME280;39398;48.382;9.802;2022-10-17T02:22:40;94428.16;;;14.83;82.47
53522;BME280;39398;48.382;9.802;2022-10-17T02:23:50;94418.16;;;14.85;81.71
53522;BME280;39398;48.382;9.802;2022-10-17T02:24:58;94418.34;;;14.77;81.92
53522;BME280;39398;48.382;9.802;2022-10-17T02:26:06;94425.50;;;14.70;81.78
53522;BME280;39398;48.382;9.802;2022-10-17T02:27:13;94426.53;;;14.69;81.41
53522;BME280;39398;48.382;9.802;2022-10-17T02:28:18;94421.63;;;14.79;80.94
53522;BME280;39398;48.382;9.802;2022-10-17T02:29:24;94423.06;;;14.88;81.23
53522;BME280;39398;48.382;9.802;2022-10-17T02:30:33;94424.28;;;14.92;80.67
53522;BME280;39398;48.382;9.802;2022-10-17T02:31:39;94420.41;;;14.88;81.15
53522;BME280;39398;48.382;9.802;2022-10-17T02:32:46;94417.75;;;14.88;81.50
53522;BME280;39398;48.382;9.802;2022-10-17T02:33:54;94427.16;;;14.91;81.65
53522;BME280;39398;48.382;9.802;2022-10-17T02:34:59;94428.97;;;14.83;81.60
53522;BME280;39398;48.382;9.802;2022-10-17T02:36:06;94425.72;;;14.81;81.73
53522;BME280;39398;48.382;9.802;2022-10-17T02:37:13;94431.22;;;14.80;82.25
53522;BME280;39398;48.382;9.802;2022-10-17T02:38:17;94429.59;;;14.79;82.24
53522;BME280;39398;48.382;9.802;2022-10-17T02:39:20;94423.66;;;14.77;83.06
53522;BME280;39398;48.382;9.802;2022-10-17T02:40:23;94434.28;;;14.77;83.02
53522;BME280;39398;48.382;9.802;2022-10-17T02:41:27;94424.06;;;14.74;83.75
53522;BME280;39398;48.382;9.802;2022-10-17T02:42:35;94431.63;;;14.77;83.83
53522;BME280;39398;48.382;9.802;2022-10-17T02:43:38;94425.09;;;14.79;83.47
53522;BME280;39398;48.382;9.802;2022-10-17T02:44:42;94431.44;;;14.78;83.82
53522;BME280;39398;48.382;9.802;2022-10-17T02:45:45;94432.03;;;14.80;84.08
53522;BME280;39398;48.382;9.802;2022-10-17T02:46:54;94439.81;;;14.82;83.89
53522;BME280;39398;48.382;9.802;2022-10-17T02:48:02;94443.69;;;14.79;84.20
53522;BME280;39398;48.382;9.802;2022-10-17T02:49:09;94430.41;;;14.79;84.59
53522;BME280;39398;48.382;9.802;2022-10-17T02:50:17;94442.88;;;14.79;84.21
53522;BME280;39398;48.382;9.802;2022-10-17T02:51:26;94439.19;;;14.80;84.44
53522;BME280;39398;48.382;9.802;2022-10-17T02:52:35;94436.94;;;14.77;84.20
53522;BME280;39398;48.382;9.802;2022-10-17T02:53:51;94439.81;;;14.75;84.37
53522;BME280;39398;48.382;9.802;2022-10-17T02:54:58;94441.25;;;14.71;84.24
53522;BME280;39398;48.382;9.802;2022-10-17T02:56:07;94444.09;;;14.63;84.53
53522;BME280;39398;48.382;9.802;2022-10-17T02:57:18;94453.69;;;14.57;84.05
53522;BME280;39398;48.382;9.802;2022-10-17T02:58:26;94449.00;;;14.53;84.52
53522;BME280;39398;48.382;9.802;2022-10-17T02:59:32;94453.50;;;14.52;83.70
53522;BME280;39398;48.382;9.802;2022-10-17T03:00:40;94452.84;;;14.50;83.28
53522;BME280;39398;48.382;9.802;2022-10-17T03:01:42;94447.94;;;14.47;83.09
53522;BME280;39398;48.382;9.802;2022-10-17T03:02:46;94452.84;;;14.43;82.83
53522;BME280;39398;48.382;9.802;2022-10-17T03:03:47;94455.69;;;14.42;82.66
53522;BME280;39398;48.382;9.802;2022-10-17T03:04:50;94457.13;;;14.45;82.52
53522;BME280;39398;48.382;9.802;2022-10-17T03:05:52;94453.47;;;14.46;82.46
53522;BME280;39398;48.382;9.802;2022-10-17T03:06:54;94462.47;;;14.51;82.48
53522;BME280;39398;48.382;9.802;2022-10-17T03:07:56;94460.41;;;14.47;82.30
53522;BME280;39398;48.382;9.802;2022-10-17T03:08:57;94457.78;;;14.53;82.13
53522;BME280;39398;48.382;9.802;2022-10-17T03:09:59;94450.84;;;14.52;82.51
53522;BME280;39398;48.382;9.802;2022-10-17T03:11:00;94451.66;;;14.53;82.24
53522;BME280;39398;48.382;9.802;2022-10-17T03:12:02;94456.16;;;14.52;82.58
53522;BME280;39398;48.382;9.802;2022-10-17T03:13:03;94451.44;;;14.54;82.54
53522;BME280;39398;48.382;9.802;2022-10-17T03:14:05;94456.75;;;14.54;83.01
53522;BME280;39398;48.382;9.802;2022-10-17T03:15:07;94464.31;;;14.57;83.10
53522;BME280;39398;48.382;9.802;2022-10-17T03:16:09;94462.28;;;14.53;83.46
53522;BME280;39398;48.382;9.802;2022-10-17T03:17:10;94459.63;;;14.53;83.81
53522;BME280;39398;48.382;9.802;2022-10-17T03:18:12;94462.06;;;14.54;83.64
53522;BME280;39398;48.382;9.802;2022-10-17T03:19:13;94462.88;;;14.55;83.69
53522;BME280;39398;48.382;9.802;2022-10-17T03:20:16;94462.72;;;14.56;83.66
53522;BME280;39398;48.382;9.802;2022-10-17T03:21:18;94462.88;;;14.55;83.91
53522;BME280;39398;48.382;9.802;2022-10-17T03:22:19;94456.97;;;14.59;83.84
53522;BME280;39398;48.382;9.802;2022-10-17T03:23:21;94463.94;;;14.60;83.70
53522;BME280;39398;48.382;9.802;2022-10-17T03:24:22;94463.34;;;14.65;83.37
53522;BME280;39398;48.382;9.802;2022-10-17T03:25:24;94462.72;;;14.70;83.49
53522;BME280;39398;48.382;9.802;2022-10-17T03:26:25;94468.44;;;14.67;83.05
53522;BME280;39398;48.382;9.802;2022-10-17T03:27:26;94468.03;;;14.70;83.13
53522;BME280;39398;48.382;9.802;2022-10-17T03:28:28;94465.59;;;14.68;82.71
53522;BME280;39398;48.382;9.802;2022-10-17T03:29:30;94468.25;;;14.68;82.31
53522;BME280;39398;48.382;9.802;2022-10-17T03:30:32;94465.78;;;14.73;82.03
53522;BME280;39398;48.382;9.802;2022-10-17T03:31:34;94469.47;;;14.72;81.62
53522;BME280;39398;48.382;9.802;2022-10-17T03:32:36;94459.88;;;14.71;81.50
53522;BME280;39398;48.382;9.802;2022-10-17T03:33:37;94468.84;;;14.70;81.18
53522;BME280;39398;48.382;9.802;2022-10-17T03:34:39;94467.00;;;14.71;81.09
53522;BME280;39398;48.382;9.802;2022-10-17T03:35:42;94469.88;;;14.69;81.17
53522;BME280;39398;48.382;9.802;2022-10-17T03:36:43;94472.72;;;14.68;81.32
53522;BME280;39398;48.382;9.802;2022-10-17T03:37:45;94466.41;;;14.69;81.38
53522;BME280;39398;48.382;9.802;2022-10-17T03:38:46;94471.09;;;14.73;81.36
53522;BME280;39398;48.382;9.802;2022-10-17T03:39:48;94471.50;;;14.77;81.67
53522;BME280;39398;48.382;9.802;2022-10-17T03:40:53;94469.66;;;14.71;80.92
53522;BME280;39398;48.382;9.802;2022-10-17T03:41:55;94473.97;;;14.78;80.12
53522;BME280;39398;48.382;9.802;2022-10-17T03:42:56;94471.50;;;14.83;79.77
53522;BME280;39398;48.382;9.802;2022-10-17T03:43:58;94470.91;;;14.88;79.39
53522;BME280;39398;48.382;9.802;2022-10-17T03:44:59;94472.34;;;14.91;79.23
53522;BME280;39398;48.382;9.802;2022-10-17T03:46:01;94477.66;;;14.91;79.82
53522;BME280;39398;48.382;9.802;2022-10-17T03:47:02;94478.47;;;14.91;79.76
53522;BME280;39398;48.382;9.802;2022-10-17T03:48:04;94482.34;;;14.88;79.87
53522;BME280;39398;48.382;9.802;2022-10-17T03:49:07;94484.19;;;14.88;79.61
53522;BME280;39398;48.382;9.802;2022-10-17T03:50:09;94479.47;;;14.83;79.09
53522;BME280;39398;48.382;9.802;2022-10-17T03:51:12;94477.03;;;14.82;78.50
53522;BME280;39398;48.382;9.802;2022-10-17T03:52:13;94477.44;;;14.79;78.67
53522;BME280;39398;48.382;9.802;2022-10-17T03:53:15;94475.00;;;14.77;78.66
53522;BME280;39398;48.382;9.802;2022-10-17T03:54:16;94478.25;;;14.73;78.38
53522;BME280;39398;48.382;9.802;2022-10-17T03:55:18;94471.72;;;14.69;78.37
53522;BME280;39398;48.382;9.802;2022-10-17T03:56:21;94470.06;;;14.68;78.63
53522;BME280;39398;48.382;9.802;2022-10-17T03:57:23;94472.94;;;14.66;78.11
53522;BME280;39398;48.382;9.802;2022-10-17T03:58:24;94472.94;;;14.59;78.43
53522;BME280;39398;48.382;9.802;2022-10-17T03:59:26;94473.34;;;14.56;78.22
53522;BME280;39398;48.382;9.802;2022-10-17T04:00:27;94472.53;;;14.56;78.58
53522;BME280;39398;48.382;9.802;2022-10-17T04:01:29;94477.03;;;14.55;78.44
53522;BME280;39398;48.382;9.802;2022-10-17T04:02:30;94479.06;;;14.60;78.23
53522;BME280;39398;48.382;9.802;2022-10-17T04:03:32;94482.34;;;14.62;78.19
53522;BME280;39398;48.382;9.802;2022-10-17T04:04:33;94481.94;;;14.65;78.42
53522;BME280;39398;48.382;9.802;2022-10-17T04:05:35;94477.44;;;14.65;78.49
53522;BME280;39398;48.382;9.802;2022-10-17T04:06:38;94481.13;;;14.64;78.85
53522;BME280;39398;48.382;9.802;2022-10-17T04:07:40;94485.19;;;14.67;78.65
53522;BME280;39398;48.382;9.802;2022-10-17T04:08:41;94483.16;;;14.62;78.88
53522;BME280;39398;48.382;9.802;2022-10-17T04:09:42;94482.75;;;14.59;79.21
53522;BME280;39398;48.382;9.802;2022-10-17T04:10:44;94482.72;;;14.52;79.88
53522;BME280;39398;48.382;9.802;2022-10-17T04:11:45;94479.25;;;14.52;79.53
53522;BME280;39398;48.382;9.802;2022-10-17T04:12:47;94481.69;;;14.53;79.79
53522;BME280;39398;48.382;9.802;2022-10-17T04:13:52;94482.06;;;14.50;79.82
53522;BME280;39398;48.382;9.802;2022-10-17T04:14:53;94485.13;;;14.47;80.74
53522;BME280;39398;48.382;9.802;2022-10-17T04:15:56;94484.50;;;14.38;81.14
53522;BME280;39398;48.382;9.802;2022-10-17T04:16:57;94488.19;;;14.37;81.25
53522;BME280;39398;48.382;9.802;2022-10-17T04:17:59;94488.41;;;14.36;81.38
53522;BME280;39398;48.382;9.802;2022-10-17T04:19:01;94488.00;;;14.39;81.82
53522;BME280;39398;48.382;9.802;2022-10-17T04:20:03;94481.66;;;14.40;81.42
53522;BME280;39398;48.382;9.802;2022-10-17T04:21:05;94486.56;;;14.43;80.88
53522;BME280;39398;48.382;9.802;2022-10-17T04:22:08;94487.16;;;14.45;80.83
53522;BME280;39398;48.382;9.802;2022-10-17T04:23:10;94479.81;;;14.40;81.09
53522;BME280;39398;48.382;9.802;2022-10-17T04:24:11;94486.75;;;14.48;81.33
53522;BME280;39398;48.382;9.802;2022-10-17T04:25:13;94488.59;;;14.48;80.97
53522;BME280;39398;48.382;9.802;2022-10-17T04:26:14;94480.69;;;14.54;80.77
53522;BME280;39398;48.382;9.802;2022-10-17T04:27:16;94483.75;;;14.58;80.69
53522;BME280;39398;48.382;9.802;2022-10-17T04:28:17;94488.88;;;14.59;80.42
53522;BME280;39398;48.382;9.802;2022-10-17T04:29:19;94490.72;;;14.59;80.56
53522;BME280;39398;48.382;9.802;2022-10-17T04:30:20;94497.03;;;14.58;80.81
53522;BME280;39398;48.382;9.802;2022-10-17T04:31:21;94496.03;;;14.59;80.82
53522;BME280;39398;48.382;9.802;2022-10-17T04:32:24;94484.38;;;14.60;80.69
53522;BME280;39398;48.382;9.802;2022-10-17T04:33:26;94492.34;;;14.60;80.63
53522;BME280;39398;48.382;9.802;2022-10-17T04:34:27;94488.88;;;14.59;80.75
53522;BME280;39398;48.382;9.802;2022-10-17T04:35:29;94494.38;;;14.58;81.17
53522;BME280;39398;48.382;9.802;2022-10-17T04:36:30;94495.56;;;14.49;81.93
53522;BME280;39398;48.382;9.802;2022-10-17T04:37:33;94496.97;;;14.45;82.29
53522;BME280;39398;48.382;9.802;2022-10-17T04:38:35;94496.56;;;14.41;82.77
53522;BME280;39398;48.382;9.802;2022-10-17T04:39:36;94496.97;;;14.38;82.82
53522;BME280;39398;48.382;9.802;2022-10-17T04:40:38;94497.19;;;14.43;83.08
53522;BME280;39398;48.382;9.802;2022-10-17T04:41:39;94494.69;;;14.35;83.17
53522;BME280;39398;48.382;9.802;2022-10-17T04:42:41;94496.75;;;14.33;83.22
53522;BME280;39398;48.382;9.802;2022-10-17T04:43:42;94495.97;;;14.39;83.64
53522;BME280;39398;48.382;9.802;2022-10-17T04:44:50;94497.56;;;14.33;83.46
53522;BME280;39398;48.382;9.802;2022-10-17T04:45:51;94494.91;;;14.33;83.25
53522;BME280;39398;48.382;9.802;2022-10-17T04:46:53;94494.31;;;14.38;83.34
53522;BME280;39398;48.382;9.802;2022-10-17T04:47:54;94498.63;;;14.39;83.62
53522;BME280;39398;48.382;9.802;2022-10-17T04:48:56;94501.69;;;14.36;83.96
53522;BME280;39398;48.382;9.802;2022-10-17T04:49:57;94499.03;;;14.36;83.77
53522;BME280;39398;48.382;9.802;2022-10-17T04:51:01;94500.03;;;14.35;83.88
53522;BME280;39398;48.382;9.802;2022-10-17T04:52:03;94503.31;;;14.37;83.77
53522;BME280;39398;48.382;9.802;2022-10-17T04:53:06;94502.28;;;14.38;83.98
53522;BME280;39398;48.382;9.802;2022-10-17T04:54:07;94503.72;;;14.40;83.84
53522;BME280;39398;48.382;9.802;2022-10-17T04:55:09;94498.19;;;14.35;83.46
53522;BME280;39398;48.382;9.802;2022-10-17T04:56:12;94506.16;;;14.42;82.59
53522;BME280;39398;48.382;9.802;2022-10-17T04:57:13;94509.66;;;14.42;82.12
53522;BME280;39398;48.382;9.802;2022-10-17T04:58:15;94503.09;;;14.45;81.48
53522;BME280;39398;48.382;9.802;2022-10-17T04:59:17;94500.88;;;14.49;81.38
53522;BME280;39398;48.382;9.802;2022-10-17T05:00:19;94501.88;;;14.48;81.25
53522;BME280;39398;48.382;9.802;2022-10-17T05:01:21;94501.06;;;14.47;81.57
53522;BME280;39398;48.382;9.802;2022-10-17T05:02:23;94511.06;;;14.45;80.54
53522;BME280;39398;48.382;9.802;2022-10-17T05:03:25;94511.44;;;14.35;81.29
53522;BME280;39398;48.382;9.802;2022-10-17T05:04:26;94503.06;;;14.25;82.44
53522;BME280;39398;48.382;9.802;2022-10-17T05:05:28;94514.88;;;14.16;83.12
53522;BME280;39398;48.382;9.802;2022-10-17T05:06:29;94511.78;;;14.12;83.69
53522;BME280;39398;48.382;9.802;2022-10-17T05:07:31;94510.59;;;14.22;84.07
53522;BME280;39398;48.382;9.802;2022-10-17T05:08:34;94513.66;;;14.18;84.49
53522;BME280;39398;48.382;9.802;2022-10-17T05:09:35;94513.88;;;14.17;84.39
53522;BME280;39398;48.382;9.802;2022-10-17T05:10:37;94504.69;;;14.26;82.98
53522;BME280;39398;48.382;9.802;2022-10-17T05:11:41;94518.41;;;14.30;82.72
53522;BME280;39398;48.382;9.802;2022-10-17T05:12:42;94515.94;;;14.28;82.93
53522;BME280;39398;48.382;9.802;2022-10-17T05:13:44;94511.22;;;14.24;83.41
53522;BME280;39398;48.382;9.802;2022-10-17T05:14:49;94521.03;;;14.23;83.40
53522;BME280;39398;48.382;9.802;2022-10-17T05:15:51;94509.19;;;14.26;82.91
53522;BME280;39398;48.382;9.802;2022-10-17T05:16:52;94510.03;;;14.33;82.49
53522;BME280;39398;48.382;9.802;2022-10-17T05:17:54;94512.88;;;14.31;82.67
53522;BME280;39398;48.382;9.802;2022-10-17T05:18:57;94507.97;;;14.35;82.65
53522;BME280;39398;48.382;9.802;2022-10-17T05:19:58;94514.50;;;14.32;83.28
53522;BME280;39398;48.382;9.802;2022-10-17T05:21:02;94506.75;;;14.31;82.47
53522;BME280;39398;48.382;9.802;2022-10-17T05:22:04;94505.72;;;14.32;82.63
53522;BME280;39398;48.382;9.802;2022-10-17T05:23:05;94507.97;;;14.28;83.36
53522;BME280;39398;48.382;9.802;2022-10-17T05:24:10;94504.69;;;14.26;83.99
53522;BME280;39398;48.382;9.802;2022-10-17T05:25:13;94510.63;;;14.28;84.42
53522;BME280;39398;48.382;9.802;2022-10-17T05:26:15;94513.50;;;14.33;83.31
53522;BME280;39398;48.382;9.802;2022-10-17T05:27:17;94516.16;;;14.33;83.91
53522;BME280;39398;48.382;9.802;2022-10-17T05:28:18;94514.75;;;14.37;83.24
53522;BME280;39398;48.382;9.802;2022-10-17T05:29:20;94517.78;;;14.28;83.85
53522;BME280;39398;48.382;9.802;2022-10-17T05:30:21;94509.00;;;14.27;83.49
53522;BME280;39398;48.382;9.802;2022-10-17T05:31:23;94505.69;;;14.18;84.20
53522;BME280;39398;48.382;9.802;2022-10-17T05:32:24;94510.00;;;14.26;83.34
53522;BME280;39398;48.382;9.802;2022-10-17T05:33:26;94520.22;;;14.29;83.24
53522;BME280;39398;48.382;9.802;2022-10-17T05:34:27;94518.19;;;14.31;82.81
53522;BME280;39398;48.382;9.802;2022-10-17T05:35:29;94511.03;;;14.25;83.65
53522;BME280;39398;48.382;9.802;2022-10-17T05:36:31;94519.81;;;14.26;84.31
53522;BME280;39398;48.382;9.802;2022-10-17T05:37:32;94510.63;;;14.28;83.98
53522;BME280;39398;48.382;9.802;2022-10-17T05:38:34;94518.16;;;14.25;83.76
53522;BME280;39398;48.382;9.802;2022-10-17T05:39:37;94514.50;;;14.26;83.81
53522;BME280;39398;48.382;9.802;2022-10-17T05:40:39;94513.28;;;14.28;83.43